Latest METARs, TAFs and NOTAMs for EGSS


---------------------------------------------------------------------------
	(OBSERVATIONS)
EGSS 160650Z AUTO 33004KT 290V360 9999 NCD 20/13 Q1014=
EGSS 160620Z AUTO 32003KT 9999 NCD 19/12 Q1014=
EGSS 160550Z AUTO 30004KT 9999 NCD 17/12 Q1014=
EGSS 160520Z AUTO 30004KT 9999 NCD 16/11 Q1014=
EGSS 160450Z AUTO 29003KT 9999 NCD 14/11 Q1014=
EGSS 160420Z AUTO 30002KT 9999 NCD 14/11 Q1014=
---------------------------------------------------------------------------
	(FC)
Sorry, FC For EGSS Not Found
---------------------------------------------------------------------------
	(TERMINAL AREA FORECAST)
EGSS 160456Z 1606/1712 28006KT 9999 FEW045
    PROB30 1606/1607 8000
    PROB30 TEMPO 1615/1622 6000 SHRA=
---------------------------------------------------------------------------
	(NOTAMS)


EGSS A1523/18 B-RNAV STAR VIA ABBOT (NORTHEAST) CHART FOLLOWING
    RECALIBRATION OF BKY VOR, AMEND ABBOT WAYPOINT TO READ BKY
    VOR R085.1/D20.0 AND ABBOT HOLD TO 265 DEGREES INBOUND 085
    DEGREES OUTBOUND. AD 2-EGSS-7-12 CHART REFERS. 27 APR 06:41
    2018 UNTIL PERM. CREATED: 27 APR 06:42 2018

EGSS A1534/18 NEW 8.33 KHZ FREQUENCIES IN USE AT STANSTED AIRPORT.
    STANSTED TOWER (AIR) 123.805 MHZ STANSTED GROUND (GMC) 121.730
    MHZ STANSTED DELIVERY (GMP) 121.955 MHZ AUTOMATIC TERMINAL
    INFORMATION SERVICE (ATIS) 127.180 MHZ AIP AD 2-EGSS-2.18
    AND ALL CHARTS REFER. 27 APR 10:53 2018 UNTIL PERM. CREATED:
    27 APR 10:53 2018

EGSS A3556/17 NEW TAXIWAY INFRASTRUCTURE NORTHEAST OF TAXIWAY
    LINK DELTA, EXTENSION OF TAXIWAY HOTEL BETWEEN LINK DELTA
    AND NEW LINK ECHO FEEDING APRON ECHO. 26 OCT 11:44 2017 UNTIL
    PERM. CREATED: 26 OCT 11:46 2017

---------------------------------------------------------------------------